»·PEaware :: N172RB L62-KSBP

N172RB :: L62-KSBP

FLIGHT INFORMATION

Flight Status: Arrived
Operator: Privately registered:
United States
More flights under this callsign
Pilot: Newton D. (19172)
Aircraft: CESSNA 172 SKYHAWK
(C172)
More flights by this aircraft type
Origin: L62 Elk Hills-Buttonwillow
United States
Destination: KSBP San Luis Co Regl
United States
More flights between these airports :: More routes between these airports
Route: DCT
File this flight plan on PilotEdge
Remarks:
Altitude:
(Current/Filed)
6,500ft
Speed:
(Current/Filed)
124kts
Departed: 14-May-18 04:21 PM
Arrived: 14-May-18 04:51 PM
Distance/Time
Traveled:
58nm/0:30
Distance/Time
To Go:
Arrived

Flight Plot

Page will automatically refresh every two minutes.

Flight plan parsing failed; only flown route is shown


Map Options




Map Legend


Flown Route
Filed Route
Departure Airport
Arrival Airport
Navaid (VOR, NDB)
Fix

Horizontal Profiles

Position Reports

Time Latitude Longitude Heading Altitude Ground
Speed
14-May-18 15:37 35.241147 -120.645042 102 171ft 0kts
14-May-18 15:38 35.241147 -120.645042 102 171ft 0kts
14-May-18 15:39 35.241147 -120.645042 102 171ft 0kts
14-May-18 15:40 35.241147 -120.645042 102 171ft 0kts
14-May-18 15:41 35.241147 -120.645042 102 171ft 0kts
14-May-18 15:42 35.241147 -120.645042 102 171ft 0kts
14-May-18 15:43 35.241147 -120.645042 102 171ft 0kts
14-May-18 15:44 35.241147 -120.645042 102 171ft 0kts
14-May-18 15:45 35.241147 -120.645042 102 171ft 0kts
14-May-18 15:46 35.241147 -120.645042 102 171ft 0kts
14-May-18 15:47 35.241147 -120.645042 102 171ft 0kts
14-May-18 15:48 35.241147 -120.645042 102 171ft 0kts
14-May-18 15:49 35.241147 -120.645042 102 171ft 0kts
14-May-18 15:50 35.241147 -120.645042 102 171ft 0kts
14-May-18 15:51 35.241147 -120.645042 102 171ft 0kts
14-May-18 15:52 35.241147 -120.645042 102 171ft 0kts
14-May-18 15:53 35.241147 -120.645042 102 171ft 0kts
14-May-18 15:54 35.241147 -120.645042 102 171ft 0kts
14-May-18 15:55 35.241147 -120.645042 102 171ft 0kts
14-May-18 15:56 35.241147 -120.645042 102 171ft 0kts
14-May-18 15:57 35.241147 -120.645042 102 171ft 0kts
14-May-18 16:05 35.239073 -120.641582 350 185ft 0kts
14-May-18 16:06 35.239073 -120.641582 350 185ft 0kts
14-May-18 16:07 35.239073 -120.641582 350 185ft 0kts
14-May-18 16:08 35.239073 -120.641582 350 185ft 0kts
14-May-18 16:09 35.239073 -120.641582 350 185ft 0kts
14-May-18 16:10 35.239073 -120.641582 350 185ft 0kts
14-May-18 16:11 35.239073 -120.641582 350 185ft 0kts
14-May-18 16:12 35.239073 -120.641582 350 185ft 0kts
14-May-18 16:13 35.239073 -120.641582 350 185ft 0kts
14-May-18 16:14 35.239073 -120.641582 350 185ft 0kts
14-May-18 16:15 35.238085 -120.640503 128 189ft 14kts
14-May-18 16:16 35.234899 -120.634773 123 211ft 17kts
14-May-18 16:17 35.233285 -120.632414 202 212ft 1kts
14-May-18 16:18 35.233230 -120.632446 202 212ft 0kts
14-May-18 16:19 35.233230 -120.632446 202 212ft 0kts
14-May-18 16:20 35.233142 -120.632505 209 212ft 5kts
14-May-18 16:21 35.239613 -120.645157 303 506ft 73kts
14-May-18 16:22 35.250628 -120.665006 309 1220ft 84kts
14-May-18 16:23 35.238945 -120.680793 132 1373ft 89kts
14-May-18 16:24 35.224151 -120.652755 117 1193ft 103kts
14-May-18 16:25 35.210871 -120.625046 121 1190ft 85kts
14-May-18 16:26 35.199266 -120.604340 123 1221ft 73kts
14-May-18 16:27 35.206422 -120.590467 319 1103ft 79kts
14-May-18 16:28 35.219813 -120.610692 306 1007ft 69kts
14-May-18 16:29 35.231546 -120.631355 308 394ft 78kts
14-May-18 16:30 35.243701 -120.653597 303 487ft 93kts
14-May-18 16:31 35.257652 -120.679428 308 1252ft 94kts
14-May-18 16:32 35.252064 -120.702640 165 1387ft 113kts
14-May-18 16:33 35.233595 -120.674150 124 1248ft 103kts
14-May-18 16:34 35.218125 -120.647981 123 1201ft 87kts
14-May-18 16:35 35.203840 -120.623376 125 1194ft 87kts
14-May-18 16:36 35.190933 -120.598197 92 1208ft 86kts
14-May-18 16:37 35.207778 -120.593012 321 1120ft 83kts
14-May-18 16:38 35.222264 -120.615033 304 846ft 86kts
14-May-18 16:39 35.236233 -120.639382 312 209ft 72kts
14-May-18 16:40 35.249361 -120.661903 305 584ft 91kts
14-May-18 16:41 35.263476 -120.688899 304 1227ft 101kts
14-May-18 16:42 35.251071 -120.711190 139 1229ft 113kts
14-May-18 16:43 35.233796 -120.681830 120 1204ft 95kts
14-May-18 16:44 35.219740 -120.656730 121 1199ft 85kts
14-May-18 16:45 35.206082 -120.632560 122 1184ft 85kts
14-May-18 16:46 35.192371 -120.609260 125 1195ft 84kts
14-May-18 16:47 35.195937 -120.587946 36 1172ft 84kts
14-May-18 16:48 35.212478 -120.597368 309 1011ft 81kts
14-May-18 16:49 35.225764 -120.620703 307 547ft 90kts
14-May-18 16:50 35.238076 -120.642148 305 184ft 53kts
14-May-18 16:51 35.239871 -120.647640 174 161ft 2kts
14-May-18 16:52 35.238832 -120.647499 90 164ft 2kts
14-May-18 16:53 35.238825 -120.647121 88 165ft 3kts
14-May-18 16:54 35.239223 -120.647138 272 164ft 0kts
14-May-18 16:55 35.239223 -120.647138 272 164ft 0kts
14-May-18 16:56 35.239223 -120.647138 272 164ft 0kts
14-May-18 16:57 35.239223 -120.647138 272 164ft 0kts

Navigation Log

Ident Type
Flight plan parsing failed, navigation log unavailable